createdAt,value
2019-05-28T00:00:08.260Z,85.10
2019-05-28T00:02:36.657Z,84.46
2019-05-28T00:05:06.405Z,84.28
2019-05-28T00:07:35.129Z,84.52
2019-05-28T00:10:04.594Z,85.30
2019-05-28T00:12:34.512Z,85.20
2019-05-28T00:15:03.021Z,84.83
2019-05-28T00:17:31.484Z,84.40
2019-05-28T00:19:59.902Z,85.04
2019-05-28T00:22:28.314Z,84.90
2019-05-28T00:24:56.859Z,84.96
2019-05-28T00:27:25.300Z,84.60
2019-05-28T00:29:53.700Z,84.65
2019-05-28T00:32:22.096Z,84.71
2019-05-28T00:34:50.664Z,84.75
2019-05-28T00:37:19.132Z,84.17
2019-05-28T00:39:47.544Z,84.43
2019-05-28T00:42:16.053Z,84.97
2019-05-28T00:44:44.467Z,85.38
2019-05-28T00:47:13.010Z,85.74
2019-05-28T00:49:41.560Z,85.27
2019-05-28T00:52:10.165Z,85.64
2019-05-28T00:54:38.601Z,85.18
2019-05-28T00:57:07.239Z,86.06
2019-05-28T00:59:36.493Z,85.82
2019-05-28T01:02:05.035Z,86.55
2019-05-28T01:04:33.517Z,86.12
2019-05-28T01:07:01.923Z,85.77
2019-05-28T01:09:30.415Z,85.76
2019-05-28T01:11:58.832Z,85.21
2019-05-28T01:14:27.251Z,85.08
2019-05-28T01:16:55.680Z,85.17
2019-05-28T01:19:24.092Z,85.97
2019-05-28T01:21:52.577Z,86.44
2019-05-28T01:24:20.981Z,86.64
2019-05-28T01:26:49.469Z,86.36
2019-05-28T01:29:17.901Z,86.05
2019-05-28T01:31:46.297Z,85.64
2019-05-28T01:34:14.720Z,86.31
2019-05-28T01:36:43.141Z,86.27
2019-05-28T01:39:11.560Z,85.43
2019-05-28T01:41:39.974Z,85.82
2019-05-28T01:44:08.372Z,86.30
2019-05-28T01:46:36.793Z,86.69
2019-05-28T01:49:05.272Z,85.99
2019-05-28T01:51:33.664Z,86.99
2019-05-28T01:54:02.124Z,86.57
2019-05-28T01:56:30.552Z,87.19
2019-05-28T01:58:58.971Z,87.54
2019-05-28T02:01:27.388Z,87.74
2019-05-28T02:03:55.792Z,87.17
2019-05-28T02:06:24.217Z,87.59
2019-05-28T02:08:52.620Z,87.20
2019-05-28T02:11:21.091Z,86.53
2019-05-28T02:13:49.595Z,87.49
2019-05-28T02:16:17.998Z,87.67
2019-05-28T02:18:46.433Z,87.92
2019-05-28T02:21:14.859Z,87.38
2019-05-28T02:23:43.270Z,87.12
2019-05-28T02:26:11.748Z,86.77
2019-05-28T02:28:40.206Z,86.21
2019-05-28T02:31:08.697Z,86.94
2019-05-28T02:33:37.119Z,86.95
2019-05-28T02:36:05.601Z,86.00
2019-05-28T02:38:33.996Z,85.74
2019-05-28T02:41:02.489Z,86.17
2019-05-28T02:43:30.883Z,86.20
2019-05-28T02:45:59.326Z,86.14
2019-05-28T02:48:27.719Z,85.89
2019-05-28T02:50:59.267Z,85.75
2019-05-28T02:53:28.924Z,85.50
2019-05-28T02:55:58.250Z,85.56
2019-05-28T02:58:36.391Z,85.64
2019-05-28T03:01:06.666Z,85.58
2019-05-28T03:03:35.337Z,85.61
2019-05-28T03:06:06.337Z,85.82
2019-05-28T03:08:34.870Z,86.01
2019-05-28T03:11:04.586Z,87.29
2019-05-28T03:13:33.356Z,87.75
2019-05-28T03:16:04.200Z,88.17
2019-05-28T03:18:35.656Z,88.11
2019-05-28T03:21:06.221Z,87.88
2019-05-28T03:23:38.437Z,88.00
2019-05-28T03:26:07.103Z,88.61
2019-05-28T03:28:36.029Z,88.77
2019-05-28T03:31:04.502Z,89.47
2019-05-28T03:33:32.996Z,89.99
2019-05-28T03:36:04.096Z,90.22
2019-05-28T03:38:34.468Z,90.15
2019-05-28T03:41:02.912Z,90.32
2019-05-28T03:43:31.320Z,90.54
2019-05-28T03:45:59.812Z,90.28
2019-05-28T03:48:28.221Z,90.94
2019-05-28T03:50:57.019Z,90.55
2019-05-28T03:53:25.638Z,90.52
2019-05-28T03:55:54.041Z,91.18
2019-05-28T03:58:22.469Z,91.16
2019-05-28T04:00:50.972Z,91.42
2019-05-28T04:03:19.450Z,91.65
2019-05-28T04:05:47.937Z,91.69
2019-05-28T04:08:16.398Z,92.09
2019-05-28T04:10:44.794Z,91.55
2019-05-28T04:13:13.237Z,91.31
2019-05-28T04:15:41.700Z,91.82
2019-05-28T04:18:10.233Z,92.40
2019-05-28T04:20:38.594Z,92.41
2019-05-28T04:23:12.824Z,92.10
2019-05-28T04:25:41.310Z,92.20
2019-05-28T04:28:09.732Z,91.83
2019-05-28T04:30:38.139Z,91.28
2019-05-28T04:33:06.551Z,91.48
2019-05-28T04:35:35.018Z,91.51
2019-05-28T04:38:03.417Z,91.72
2019-05-28T04:40:31.809Z,91.32
2019-05-28T04:43:00.295Z,91.55
2019-05-28T04:45:28.770Z,91.39
2019-05-28T04:47:57.205Z,92.10
2019-05-28T04:50:25.742Z,92.32
2019-05-28T04:52:54.170Z,92.56
2019-05-28T04:55:22.585Z,91.69
2019-05-28T04:57:51.065Z,91.03
2019-05-28T05:00:19.638Z,91.17
2019-05-28T05:02:58.734Z,90.87
2019-05-28T05:05:18.444Z,90.74
2019-05-28T05:07:46.921Z,90.06
2019-05-28T05:10:18.879Z,90.38
2019-05-28T05:12:45.662Z,90.58
2019-05-28T05:15:14.966Z,90.03
2019-05-28T05:17:43.355Z,90.27
2019-05-28T05:20:11.888Z,89.63
2019-05-28T05:22:40.302Z,89.69
2019-05-28T05:25:09.044Z,89.91
2019-05-28T05:27:37.448Z,88.90
2019-05-28T05:30:06.706Z,88.33
2019-05-28T05:32:35.187Z,88.00
2019-05-28T05:35:03.791Z,88.70
2019-05-28T05:37:32.252Z,87.95
2019-05-28T05:40:00.666Z,88.56
2019-05-28T05:42:29.242Z,88.87
2019-05-28T05:44:57.649Z,88.29
2019-05-28T05:47:26.165Z,85.71
2019-05-28T05:49:54.572Z,85.93
2019-05-28T05:52:22.961Z,84.98
2019-05-28T05:54:51.390Z,84.49
2019-05-28T05:57:19.813Z,84.92
2019-05-28T05:59:48.238Z,84.64
2019-05-28T06:02:16.639Z,84.56
2019-05-28T06:04:45.069Z,84.42
2019-05-28T06:07:13.532Z,84.86
2019-05-28T06:09:41.932Z,84.52
2019-05-28T06:12:10.358Z,84.98
2019-05-28T06:14:38.774Z,84.68
2019-05-28T06:17:07.213Z,84.95
2019-05-28T06:19:35.611Z,84.98
2019-05-28T06:22:04.708Z,83.83
2019-05-28T06:24:33.350Z,83.55
2019-05-28T06:27:01.956Z,83.40
2019-05-28T06:29:30.357Z,84.11
2019-05-28T06:31:58.864Z,83.64
2019-05-28T06:34:27.288Z,83.94
2019-05-28T06:36:55.703Z,84.67
2019-05-28T06:39:24.209Z,83.87
2019-05-28T06:41:52.621Z,83.96
2019-05-28T06:44:21.202Z,84.26
2019-05-28T06:46:49.627Z,84.00
2019-05-28T06:49:18.197Z,83.94
2019-05-28T06:51:46.627Z,84.31
2019-05-28T06:54:15.105Z,84.18
2019-05-28T06:56:43.624Z,84.54
2019-05-28T06:59:12.029Z,84.58
2019-05-28T07:01:40.503Z,84.44
2019-05-28T07:04:13.850Z,84.25
2019-05-28T07:06:39.062Z,84.16
2019-05-28T07:09:07.710Z,85.15
2019-05-28T07:11:36.134Z,83.80
2019-05-28T07:14:05.024Z,84.20
2019-05-28T07:16:33.437Z,84.74
2019-05-28T07:19:01.863Z,84.39
2019-05-28T07:21:30.387Z,84.41
2019-05-28T07:23:58.899Z,83.75
2019-05-28T07:26:27.374Z,84.27
2019-05-28T07:28:55.788Z,83.56
2019-05-28T07:31:24.329Z,84.00
2019-05-28T07:33:52.827Z,83.98
2019-05-28T07:36:21.239Z,83.79
2019-05-28T07:38:49.685Z,83.30
2019-05-28T07:41:18.096Z,82.72
2019-05-28T07:43:46.545Z,83.11
2019-05-28T07:46:14.963Z,82.16
2019-05-28T07:48:43.387Z,81.74
2019-05-28T07:51:11.816Z,82.32
2019-05-28T07:53:40.804Z,80.99
2019-05-28T07:56:09.447Z,80.44
2019-05-28T07:58:37.891Z,81.87
2019-05-28T08:01:06.329Z,81.48
2019-05-28T08:03:34.914Z,79.79
2019-05-28T08:06:03.474Z,81.13
2019-05-28T08:08:32.032Z,81.09
2019-05-28T08:11:00.556Z,81.25
2019-05-28T08:13:40.307Z,82.81
2019-05-28T08:16:16.855Z,82.19
2019-05-28T08:18:29.359Z,83.50
2019-05-28T08:20:57.763Z,82.52
2019-05-28T08:23:26.213Z,84.06
2019-05-28T08:25:54.645Z,83.20
2019-05-28T08:28:23.113Z,82.28
2019-05-28T08:30:51.580Z,82.82
2019-05-28T08:33:20.331Z,83.01
2019-05-28T08:35:51.586Z,81.62
2019-05-28T08:38:19.000Z,82.33
2019-05-28T08:40:47.481Z,83.34
2019-05-28T08:43:16.063Z,83.06
2019-05-28T08:45:44.545Z,79.46
2019-05-28T08:48:13.065Z,80.85
2019-05-28T08:50:41.711Z,78.51
2019-05-28T08:53:10.205Z,77.83
2019-05-28T08:55:38.710Z,78.38
2019-05-28T08:58:07.220Z,77.91
2019-05-28T09:00:40.969Z,78.16
2019-05-28T09:03:10.090Z,76.90
2019-05-28T09:05:39.059Z,77.59
2019-05-28T09:08:07.831Z,78.67
2019-05-28T09:10:36.562Z,78.36
2019-05-28T09:13:05.347Z,78.22
2019-05-28T09:15:34.296Z,78.05
2019-05-28T09:18:02.841Z,77.93
2019-05-28T09:20:31.387Z,78.07
2019-05-28T09:22:59.868Z,76.37
2019-05-28T09:25:28.357Z,74.70
2019-05-28T09:27:56.748Z,75.90
2019-05-28T09:30:25.725Z,74.78
2019-05-28T09:32:54.244Z,76.11
2019-05-28T09:35:22.939Z,73.71
2019-05-28T09:37:51.446Z,73.82
2019-05-28T09:40:20.110Z,74.25
2019-05-28T09:42:48.719Z,74.20
2019-05-28T09:45:22.912Z,74.01
2019-05-28T09:47:47.519Z,74.03
2019-05-28T09:50:30.214Z,74.14
2019-05-28T09:52:54.636Z,75.67
2019-05-28T09:55:17.157Z,74.08
2019-05-28T09:57:47.824Z,72.50
2019-05-28T10:00:21.790Z,71.01
2019-05-28T10:02:51.687Z,70.38
2019-05-28T10:05:20.860Z,69.28
2019-05-28T10:07:50.459Z,70.67
2019-05-28T10:10:19.445Z,70.61
2019-05-28T10:12:47.916Z,71.31
2019-05-28T10:15:17.009Z,71.89
2019-05-28T10:17:45.547Z,75.09
2019-05-28T10:20:15.033Z,79.46
2019-05-28T10:22:43.492Z,79.07
2019-05-28T10:25:12.152Z,82.06
2019-05-28T10:27:58.521Z,82.01
2019-05-28T10:30:12.843Z,84.99
2019-05-28T10:32:41.400Z,85.87
2019-05-28T10:35:10.645Z,84.62
2019-05-28T10:37:39.041Z,86.99
2019-05-28T10:40:09.009Z,87.20
2019-05-28T10:42:37.663Z,87.04
2019-05-28T10:45:10.399Z,87.08
2019-05-28T10:47:38.862Z,87.25
2019-05-28T10:50:07.903Z,87.43
2019-05-28T10:52:36.502Z,85.58
2019-05-28T10:55:06.762Z,86.10
2019-05-28T10:57:35.269Z,86.44
2019-05-28T11:00:05.354Z,84.38
2019-05-28T11:02:33.784Z,85.36
2019-05-28T11:05:02.295Z,86.80
2019-05-28T11:07:30.694Z,87.17
2019-05-28T11:09:59.187Z,86.51
2019-05-28T11:12:27.595Z,85.23
2019-05-28T11:14:56.087Z,84.38
2019-05-28T11:17:24.549Z,84.77
2019-05-28T11:19:53.000Z,86.08
2019-05-28T11:22:21.555Z,87.90
2019-05-28T11:24:50.031Z,82.65
2019-05-28T11:27:19.001Z,84.55
2019-05-28T11:29:47.421Z,86.14
2019-05-28T11:32:15.834Z,85.01
2019-05-28T11:34:44.309Z,86.16
2019-05-28T11:37:12.798Z,84.81
2019-05-28T11:39:41.296Z,84.44
2019-05-28T11:42:09.753Z,82.01
2019-05-28T11:44:38.188Z,81.29
2019-05-28T11:47:06.673Z,80.08
2019-05-28T11:49:35.177Z,81.49
2019-05-28T11:52:03.749Z,79.78
2019-05-28T11:54:32.173Z,79.24
2019-05-28T11:57:00.687Z,81.84
2019-05-28T11:59:29.160Z,80.84
2019-05-28T12:01:57.674Z,81.80
2019-05-28T12:04:26.165Z,76.86
2019-05-28T12:06:54.631Z,78.90
2019-05-28T12:09:23.071Z,74.97
2019-05-28T12:11:51.594Z,73.29
2019-05-28T12:14:20.153Z,72.65
2019-05-28T12:16:48.605Z,73.72
2019-05-28T12:19:17.088Z,74.45
2019-05-28T12:21:45.565Z,75.56
2019-05-28T12:24:14.074Z,75.86
2019-05-28T12:26:42.514Z,75.83
2019-05-28T12:29:10.944Z,77.44
2019-05-28T12:31:39.325Z,75.76
2019-05-28T12:34:07.854Z,77.34
2019-05-28T12:36:36.246Z,79.50
2019-05-28T12:39:07.625Z,78.67
2019-05-28T12:41:36.147Z,79.53
2019-05-28T12:44:05.132Z,78.61
2019-05-28T12:46:33.583Z,77.84
2019-05-28T12:49:02.169Z,76.78
2019-05-28T12:51:30.941Z,75.45
2019-05-28T12:53:59.686Z,70.79
2019-05-28T12:56:28.163Z,72.99
2019-05-28T12:58:56.651Z,71.57
2019-05-28T13:01:25.152Z,72.32
2019-05-28T13:03:53.557Z,72.24
2019-05-28T13:06:22.063Z,71.33
2019-05-28T13:08:50.472Z,72.84
2019-05-28T13:11:18.977Z,70.50
2019-05-28T13:13:47.404Z,69.52
2019-05-28T13:16:15.837Z,65.05
2019-05-28T13:18:44.253Z,66.77
2019-05-28T13:21:12.680Z,67.54
2019-05-28T13:23:41.225Z,70.17
2019-05-28T13:26:09.709Z,69.76
2019-05-28T13:28:38.168Z,71.68
2019-05-28T13:31:06.674Z,72.63
2019-05-28T13:33:35.211Z,74.00
2019-05-28T13:36:03.728Z,74.84
2019-05-28T13:38:32.178Z,76.19
2019-05-28T13:41:00.582Z,75.23
2019-05-28T13:43:29.007Z,75.57
2019-05-28T13:45:57.492Z,74.54
2019-05-28T13:48:25.917Z,73.75
2019-05-28T13:50:54.636Z,71.34
2019-05-28T13:53:23.150Z,70.74
2019-05-28T13:55:51.589Z,72.43
2019-05-28T13:58:20.088Z,69.25
2019-05-28T14:00:48.579Z,70.58
2019-05-28T14:03:17.014Z,71.01
2019-05-28T14:05:45.432Z,73.02
2019-05-28T14:08:13.849Z,71.28
2019-05-28T14:10:42.495Z,72.61
2019-05-28T14:13:10.944Z,74.35
2019-05-28T14:15:39.432Z,74.61
2019-05-28T14:18:07.961Z,74.35
2019-05-28T14:20:36.563Z,73.58
2019-05-28T14:23:05.254Z,73.70
2019-05-28T14:25:33.760Z,75.18
2019-05-28T14:28:02.192Z,75.35
2019-05-28T14:30:30.947Z,74.11
2019-05-28T14:32:59.367Z,74.58
2019-05-28T14:35:27.860Z,73.40
2019-05-28T14:37:56.561Z,72.79
2019-05-28T14:40:25.317Z,75.86
2019-05-28T14:42:53.822Z,75.20
2019-05-28T14:45:23.179Z,76.53
2019-05-28T14:47:52.110Z,76.64
2019-05-28T14:50:20.855Z,77.75
2019-05-28T14:52:49.257Z,76.25
2019-05-28T14:55:18.117Z,74.80
2019-05-28T14:57:46.501Z,74.87
2019-05-28T15:00:18.287Z,75.29
2019-05-28T15:02:46.700Z,73.98
2019-05-28T15:05:15.257Z,73.28
2019-05-28T15:07:43.714Z,72.02
2019-05-28T15:10:16.640Z,72.52
2019-05-28T15:12:45.054Z,72.98
2019-05-28T15:15:15.132Z,74.27
2019-05-28T15:17:43.769Z,73.07
2019-05-28T15:20:12.999Z,73.25
2019-05-28T15:22:41.532Z,73.39
2019-05-28T15:25:10.577Z,72.56
2019-05-28T15:27:39.071Z,73.83
2019-05-28T15:30:09.226Z,71.51
2019-05-28T15:32:37.888Z,70.96
2019-05-28T15:35:08.414Z,71.54
2019-05-28T15:37:36.987Z,72.64
2019-05-28T15:40:07.480Z,72.55
2019-05-28T15:42:36.040Z,73.08
2019-05-28T15:45:09.024Z,71.29
2019-05-28T15:47:38.741Z,70.96
2019-05-28T15:50:08.486Z,72.26
2019-05-28T15:52:37.284Z,73.27
2019-05-28T15:55:07.976Z,74.56
2019-05-28T15:57:36.583Z,74.92
2019-05-28T16:00:07.622Z,75.18
2019-05-28T16:02:36.096Z,75.31
2019-05-28T16:05:06.969Z,74.64
2019-05-28T16:07:35.409Z,75.30
2019-05-28T16:10:08.364Z,73.88
2019-05-28T16:12:37.001Z,72.56
2019-05-28T16:17:57.581Z,74.23
2019-05-28T16:20:26.070Z,75.29
2019-05-28T16:22:54.492Z,75.36
2019-05-28T16:25:22.912Z,74.60
2019-05-28T16:27:51.361Z,74.57
2019-05-28T16:30:20.338Z,76.22
2019-05-28T16:32:48.748Z,76.79
2019-05-28T16:35:20.046Z,76.61
2019-05-28T16:37:48.604Z,77.29
2019-05-28T16:40:18.198Z,78.11
2019-05-28T16:42:46.673Z,78.92
2019-05-28T16:45:15.351Z,78.72
2019-05-28T16:47:43.857Z,79.77
2019-05-28T16:50:13.617Z,79.10
2019-05-28T16:52:42.306Z,79.45
2019-05-28T16:55:11.729Z,79.93
2019-05-28T16:57:40.197Z,79.25
2019-05-28T17:00:09.294Z,78.58
2019-05-28T17:02:37.665Z,79.16
2019-05-28T17:05:07.658Z,79.21
2019-05-28T17:07:36.195Z,78.89
2019-05-28T17:10:06.184Z,78.23
2019-05-28T17:12:34.833Z,78.26
2019-05-28T17:15:05.320Z,76.93
2019-05-28T17:17:33.805Z,78.41
2019-05-28T17:20:02.257Z,78.12
2019-05-28T17:22:30.725Z,78.93
2019-05-28T17:24:59.187Z,79.57
2019-05-28T17:27:27.592Z,79.51
2019-05-28T17:30:15.476Z,79.84
2019-05-28T17:32:26.143Z,79.97
2019-05-28T17:34:54.564Z,81.14
2019-05-28T17:37:23.062Z,80.73
2019-05-28T17:39:52.429Z,80.69
2019-05-28T17:42:20.853Z,80.99
2019-05-28T17:44:49.250Z,81.33
2019-05-28T17:47:17.726Z,81.23
2019-05-28T17:49:46.226Z,81.49
2019-05-28T17:52:14.635Z,80.67
2019-05-28T17:54:43.143Z,81.50
2019-05-28T17:57:11.552Z,81.64
2019-05-28T17:59:39.949Z,80.62
2019-05-28T18:02:08.384Z,80.42
2019-05-28T18:04:36.882Z,79.75
2019-05-28T18:07:05.743Z,79.58
2019-05-28T18:09:34.181Z,79.72
2019-05-28T18:12:02.637Z,78.05
2019-05-28T18:14:31.043Z,78.01
2019-05-28T18:16:59.460Z,77.78
2019-05-28T18:19:27.901Z,77.21
2019-05-28T18:21:56.313Z,76.26
2019-05-28T18:24:24.747Z,75.60
2019-05-28T18:26:53.241Z,76.79
2019-05-28T18:29:21.734Z,75.78
2019-05-28T18:31:50.181Z,77.76
2019-05-28T18:34:18.657Z,76.28
2019-05-28T18:36:47.057Z,77.41
2019-05-28T18:39:15.475Z,77.75
2019-05-28T18:41:43.966Z,76.83
2019-05-28T18:44:12.409Z,78.05
2019-05-28T18:46:40.801Z,77.72
2019-05-28T18:49:09.232Z,78.94
2019-05-28T18:51:38.922Z,77.83
2019-05-28T18:54:07.625Z,77.40
2019-05-28T18:56:36.036Z,77.45
2019-05-28T18:59:04.628Z,78.41
2019-05-28T19:01:33.128Z,78.56
2019-05-28T19:04:01.567Z,78.45
2019-05-28T19:06:29.978Z,78.38
2019-05-28T19:12:35.508Z,78.61
2019-05-28T19:15:08.334Z,78.71
2019-05-28T19:17:39.111Z,79.75
2019-05-28T19:20:08.547Z,80.00
2019-05-28T19:22:37.155Z,79.47
2019-05-28T19:25:11.781Z,79.77
2019-05-28T19:27:40.281Z,79.76
2019-05-28T19:30:09.969Z,78.75
2019-05-28T19:32:38.645Z,79.12
2019-05-28T19:35:08.571Z,78.63
2019-05-28T19:37:37.204Z,79.33
2019-05-28T19:40:07.265Z,78.77
2019-05-28T19:42:35.715Z,79.05
2019-05-28T19:45:06.277Z,79.77
2019-05-28T19:47:34.728Z,78.81
2019-05-28T19:50:04.679Z,79.23
2019-05-28T19:52:35.939Z,79.13
2019-05-28T19:55:06.007Z,79.75
2019-05-28T19:57:34.505Z,80.42
2019-05-28T20:00:04.483Z,80.43
2019-05-28T20:02:32.985Z,80.89
2019-05-28T20:05:01.504Z,80.98
2019-05-28T20:07:30.058Z,81.46
2019-05-28T20:09:58.495Z,80.32
2019-05-28T20:12:26.977Z,79.98
2019-05-28T20:14:55.435Z,80.10
2019-05-28T20:17:24.041Z,80.46
2019-05-28T20:19:54.526Z,80.46
2019-05-28T20:22:22.723Z,78.90
2019-05-28T20:24:52.593Z,78.93
2019-05-28T20:27:21.541Z,79.86
2019-05-28T20:29:49.928Z,79.48
2019-05-28T20:32:18.434Z,78.46
2019-05-28T20:34:46.898Z,79.91
2019-05-28T20:37:17.471Z,79.45
2019-05-28T20:39:49.250Z,78.92
2019-05-28T20:42:26.843Z,80.35
2019-05-28T20:44:49.567Z,79.86
2019-05-28T20:47:18.212Z,79.40
2019-05-28T20:49:49.704Z,79.27
2019-05-28T20:52:20.651Z,80.46
2019-05-28T20:54:52.996Z,79.95
2019-05-28T20:57:21.385Z,80.71
2019-05-28T20:59:49.840Z,80.92
2019-05-28T21:02:19.277Z,81.21
2019-05-28T21:04:48.011Z,80.54
2019-05-28T21:07:16.438Z,80.74
2019-05-28T21:09:44.924Z,81.52
2019-05-28T21:12:13.334Z,80.81
2019-05-28T21:14:41.777Z,81.27
2019-05-28T21:17:10.343Z,80.59
2019-05-28T21:19:38.756Z,80.54
2019-05-28T21:22:07.202Z,80.04
2019-05-28T21:24:35.854Z,80.12
2019-05-28T21:27:04.375Z,80.67
2019-05-28T21:29:32.861Z,79.66
2019-05-28T21:32:01.297Z,79.53
2019-05-28T21:34:29.713Z,78.38
2019-05-28T21:36:59.210Z,77.93
2019-05-28T21:39:27.855Z,78.30
2019-05-28T21:41:59.776Z,78.36
2019-05-28T21:44:26.524Z,76.40
2019-05-28T21:46:56.237Z,77.09
2019-05-28T21:49:24.816Z,77.27
2019-05-28T21:51:54.519Z,77.38
2019-05-28T21:54:23.019Z,77.58
2019-05-28T21:56:51.602Z,76.78
2019-05-28T21:59:20.025Z,76.57
2019-05-28T22:01:48.538Z,77.51
2019-05-28T22:04:17.117Z,77.19
2019-05-28T22:06:45.665Z,76.82
2019-05-28T22:09:14.133Z,77.22
2019-05-28T22:11:42.552Z,78.17
2019-05-28T22:14:11.002Z,78.72
2019-05-28T22:16:39.438Z,78.03
2019-05-28T22:19:08.833Z,78.28
2019-05-28T22:21:38.240Z,78.14
2019-05-28T22:24:06.669Z,77.45
2019-05-28T22:26:35.157Z,78.14
2019-05-28T22:29:03.645Z,78.11
2019-05-28T22:31:32.186Z,77.15
2019-05-28T22:34:01.016Z,78.74
2019-05-28T22:36:29.498Z,79.63
2019-05-28T22:39:05.493Z,78.40
2019-05-28T22:41:34.477Z,80.00
2019-05-28T22:44:02.937Z,80.54
2019-05-28T22:46:31.323Z,80.60
2019-05-28T22:48:59.729Z,80.97
2019-05-28T22:51:28.225Z,81.02
2019-05-28T22:53:57.726Z,81.77
2019-05-28T22:56:26.318Z,81.91
2019-05-28T22:58:54.771Z,81.87
2019-05-28T23:01:23.172Z,81.66
2019-05-28T23:03:51.618Z,82.11
2019-05-28T23:06:20.100Z,82.38
2019-05-28T23:08:48.637Z,82.06
2019-05-28T23:11:17.045Z,82.52
2019-05-28T23:13:47.006Z,82.41
2019-05-28T23:16:15.751Z,82.39
2019-05-28T23:18:44.309Z,83.41
2019-05-28T23:21:12.713Z,82.80
2019-05-28T23:23:41.130Z,83.16
2019-05-28T23:26:09.572Z,83.58
2019-05-28T23:28:38.069Z,83.73
2019-05-28T23:31:06.556Z,83.53
2019-05-28T23:33:34.987Z,83.25
2019-05-28T23:36:04.446Z,81.61
2019-05-28T23:38:33.160Z,82.83
2019-05-28T23:41:01.592Z,81.75
2019-05-28T23:43:30.004Z,80.75
2019-05-28T23:45:58.465Z,81.83
2019-05-28T23:48:26.895Z,82.86
2019-05-28T23:50:55.327Z,83.08
2019-05-28T23:53:23.800Z,83.91
2019-05-28T23:55:52.243Z,83.29
2019-05-28T23:58:20.644Z,82.55
